createdAt,value
2018-07-21T00:00:02.683Z,3.75
2018-07-21T00:00:15.104Z,3.75
2018-07-21T00:00:27.684Z,3.75
2018-07-21T00:00:40.118Z,3.75
2018-07-21T00:00:52.544Z,3.75
2018-07-21T00:01:05.026Z,3.75
2018-07-21T00:01:17.458Z,3.74
2018-07-21T00:01:29.867Z,3.74
2018-07-21T00:01:42.288Z,3.74
2018-07-21T00:01:54.818Z,3.74
2018-07-21T00:02:07.226Z,3.74
2018-07-21T00:02:19.876Z,3.74
2018-07-21T00:02:32.851Z,3.74
2018-07-21T00:02:45.268Z,3.74
2018-07-21T00:02:57.686Z,3.74
2018-07-21T00:03:10.090Z,3.74
2018-07-21T00:03:22.486Z,3.74
2018-07-21T00:03:34.880Z,3.74
2018-07-21T00:03:47.438Z,3.74
2018-07-21T00:03:59.829Z,3.74
2018-07-21T00:04:12.223Z,3.74
2018-07-21T00:04:24.666Z,3.74
2018-07-21T00:04:37.086Z,3.74
2018-07-21T00:04:49.480Z,3.74
2018-07-21T00:05:01.885Z,3.74
2018-07-21T00:05:14.322Z,3.74
2018-07-21T00:05:26.792Z,3.74
2018-07-21T00:05:39.175Z,3.74
2018-07-21T00:05:51.571Z,3.74
2018-07-21T00:06:04.014Z,3.74
2018-07-21T00:06:16.412Z,3.74
2018-07-21T00:06:28.839Z,3.74
2018-07-21T00:06:41.265Z,3.74
2018-07-21T00:06:53.646Z,3.74
2018-07-21T00:07:06.042Z,3.74
2018-07-21T00:07:18.453Z,3.74
2018-07-21T00:07:30.898Z,3.74
2018-07-21T00:07:43.399Z,3.74
2018-07-21T00:07:55.818Z,3.74
2018-07-21T00:08:08.213Z,3.74
2018-07-21T00:08:20.618Z,3.74
2018-07-21T00:08:33.033Z,3.74
2018-07-21T00:08:45.502Z,3.74
2018-07-21T00:08:57.923Z,3.74
2018-07-21T00:09:10.516Z,3.74
2018-07-21T00:09:22.917Z,3.74
2018-07-21T00:09:35.301Z,3.74
2018-07-21T00:09:47.692Z,3.74
2018-07-21T00:10:00.098Z,3.74
2018-07-21T00:10:12.508Z,3.74
2018-07-21T00:10:24.919Z,3.74
2018-07-21T00:10:37.332Z,3.74
2018-07-21T00:10:49.730Z,3.74
2018-07-21T00:11:02.299Z,3.74
2018-07-21T00:11:14.700Z,3.69
2018-07-21T00:11:27.592Z,3.69
2018-07-21T00:11:39.990Z,3.69
2018-07-21T00:11:52.395Z,3.69
2018-07-21T00:12:04.830Z,3.69
2018-07-21T00:12:17.238Z,3.69
2018-07-21T00:12:29.640Z,3.69
2018-07-21T00:12:42.040Z,3.69
2018-07-21T00:12:54.450Z,3.69
2018-07-21T00:13:07.010Z,3.69
2018-07-21T00:13:19.415Z,3.69
2018-07-21T00:13:31.815Z,3.69
2018-07-21T00:13:44.284Z,3.69
2018-07-21T00:13:56.706Z,3.69
2018-07-21T00:14:09.272Z,3.69
2018-07-21T00:14:22.305Z,3.69
2018-07-21T00:14:34.740Z,3.69
2018-07-21T00:14:47.150Z,3.69
2018-07-21T00:14:59.573Z,3.69
2018-07-21T00:15:11.988Z,3.69
2018-07-21T00:15:24.411Z,3.69
2018-07-21T00:15:36.973Z,3.69
2018-07-21T00:15:49.366Z,3.69
2018-07-21T00:16:01.782Z,3.69
2018-07-21T00:16:14.173Z,3.69
2018-07-21T00:16:26.555Z,3.69
2018-07-21T00:16:38.975Z,3.69
2018-07-21T00:16:51.389Z,3.69
2018-07-21T00:17:03.778Z,3.69
2018-07-21T00:17:16.190Z,3.69
2018-07-21T00:17:28.737Z,3.69
2018-07-21T00:17:41.161Z,3.69
2018-07-21T00:17:53.612Z,3.69
2018-07-21T00:18:06.028Z,3.69
2018-07-21T00:18:18.482Z,3.69
2018-07-21T00:18:30.872Z,3.69
2018-07-21T00:18:43.254Z,3.69
2018-07-21T00:18:55.648Z,3.69
2018-07-21T00:19:08.088Z,3.69
2018-07-21T00:19:20.502Z,3.69
2018-07-21T00:19:32.910Z,3.69
2018-07-21T00:19:45.324Z,3.69
2018-07-21T00:19:57.717Z,3.69
2018-07-21T00:20:10.111Z,3.69
2018-07-21T00:20:22.514Z,3.69
2018-07-21T00:20:34.930Z,3.69
2018-07-21T00:20:47.317Z,3.69
2018-07-21T00:20:59.728Z,3.69
2018-07-21T00:21:12.145Z,4.56
2018-07-21T00:21:24.543Z,4.56
2018-07-21T00:21:36.940Z,4.56
2018-07-21T00:21:49.402Z,4.56
2018-07-21T00:22:01.797Z,4.56
2018-07-21T00:22:14.231Z,4.56
2018-07-21T00:22:27.181Z,4.56
2018-07-21T00:22:39.585Z,4.56
2018-07-21T00:22:51.992Z,4.56
2018-07-21T00:23:04.378Z,4.56
2018-07-21T00:23:16.780Z,4.56
2018-07-21T00:23:29.172Z,4.56
2018-07-21T00:23:41.560Z,4.56
2018-07-21T00:23:53.990Z,4.56
2018-07-21T00:24:06.385Z,4.56
2018-07-21T00:24:18.824Z,4.56
2018-07-21T00:24:31.246Z,4.56
2018-07-21T00:24:43.855Z,4.56
2018-07-21T00:24:56.262Z,4.56
2018-07-21T00:25:08.680Z,4.56
2018-07-21T00:25:21.158Z,4.56
2018-07-21T00:25:33.595Z,4.56
2018-07-21T00:25:46.002Z,4.56
2018-07-21T00:25:58.399Z,4.56
2018-07-21T00:26:10.801Z,4.56
2018-07-21T00:26:23.204Z,4.56
2018-07-21T00:26:35.602Z,4.56
2018-07-21T00:26:48.000Z,4.56
2018-07-21T00:27:00.394Z,4.56
2018-07-21T00:27:12.785Z,4.56
2018-07-21T00:27:25.163Z,4.56
2018-07-21T00:27:37.555Z,4.56
2018-07-21T00:27:49.962Z,4.56
2018-07-21T00:28:02.379Z,4.56
2018-07-21T00:28:14.766Z,4.56
2018-07-21T00:28:27.149Z,4.56
2018-07-21T00:28:39.554Z,4.56
2018-07-21T00:28:51.948Z,4.56
2018-07-21T00:29:04.346Z,4.56
2018-07-21T00:29:16.773Z,4.56
2018-07-21T00:29:29.183Z,4.56
2018-07-21T00:29:41.609Z,4.56
2018-07-21T00:29:54.022Z,4.56
2018-07-21T00:30:06.548Z,4.56
2018-07-21T00:30:18.931Z,4.56
2018-07-21T00:30:31.339Z,4.56
2018-07-21T00:30:43.745Z,4.56
2018-07-21T00:30:56.368Z,4.56
2018-07-21T00:31:08.770Z,4.56
2018-07-21T00:31:21.202Z,4.4
2018-07-21T00:31:33.627Z,4.4
2018-07-21T00:31:46.011Z,4.4
2018-07-21T00:31:58.547Z,4.4
2018-07-21T00:32:10.968Z,4.4
2018-07-21T00:32:23.395Z,4.4
2018-07-21T00:32:35.805Z,4.4
2018-07-21T00:32:48.208Z,4.4
2018-07-21T00:33:00.647Z,4.4
2018-07-21T00:33:13.054Z,4.4
2018-07-21T00:33:25.443Z,4.4
2018-07-21T00:33:37.826Z,4.4
2018-07-21T00:33:50.252Z,4.4
2018-07-21T00:34:02.651Z,4.4
2018-07-21T00:34:15.036Z,4.4
2018-07-21T00:34:27.454Z,4.4
2018-07-21T00:34:39.871Z,4.4
2018-07-21T00:34:52.266Z,4.4
2018-07-21T00:35:04.709Z,4.4
2018-07-21T00:35:17.103Z,4.4
2018-07-21T00:35:29.489Z,4.4
2018-07-21T00:35:41.895Z,4.4
2018-07-21T00:35:54.293Z,4.4
2018-07-21T00:36:06.720Z,4.4
2018-07-21T00:36:19.132Z,4.4
2018-07-21T00:36:31.540Z,4.4
2018-07-21T00:36:43.950Z,4.4
2018-07-21T00:36:56.395Z,4.4
2018-07-21T00:37:08.827Z,4.4
2018-07-21T00:37:21.238Z,4.4
2018-07-21T00:37:33.616Z,4.4
2018-07-21T00:37:46.029Z,4.4
2018-07-21T00:37:58.451Z,4.4
2018-07-21T00:38:10.872Z,4.4
2018-07-21T00:38:23.273Z,4.4
2018-07-21T00:38:35.653Z,4.4
2018-07-21T00:38:48.090Z,4.4
2018-07-21T00:39:00.559Z,4.4
2018-07-21T00:39:12.987Z,4.4
2018-07-21T00:39:25.393Z,4.4
2018-07-21T00:39:37.789Z,4.4
2018-07-21T00:39:50.183Z,4.4
2018-07-21T00:40:02.581Z,4.4
2018-07-21T00:40:14.972Z,4.4
2018-07-21T00:40:27.359Z,4.4
2018-07-21T00:40:39.748Z,4.4
2018-07-21T00:40:52.135Z,4.4
2018-07-21T00:41:04.583Z,4.4
2018-07-21T00:41:17.032Z,4.38
2018-07-21T00:41:29.419Z,4.38
2018-07-21T00:41:41.819Z,4.38
2018-07-21T00:41:54.215Z,4.38
2018-07-21T00:42:06.742Z,4.38
2018-07-21T00:42:19.132Z,4.38
2018-07-21T00:42:31.523Z,4.38
2018-07-21T00:42:43.914Z,4.38
2018-07-21T00:42:56.314Z,4.38
2018-07-21T00:43:08.734Z,4.38
2018-07-21T00:43:21.165Z,4.38
2018-07-21T00:43:33.561Z,4.38
2018-07-21T00:43:46.114Z,4.38
2018-07-21T00:43:58.505Z,4.38
2018-07-21T00:44:10.905Z,4.38
2018-07-21T00:44:23.293Z,4.38
2018-07-21T00:44:35.874Z,4.38
2018-07-21T00:44:48.273Z,4.38
2018-07-21T00:45:00.665Z,4.38
2018-07-21T00:45:13.072Z,4.38
2018-07-21T00:45:25.470Z,4.38
2018-07-21T00:45:37.866Z,4.38
2018-07-21T00:45:50.272Z,4.38
2018-07-21T00:46:02.677Z,4.38
2018-07-21T00:46:15.075Z,4.38
2018-07-21T00:46:27.481Z,4.38
2018-07-21T00:46:39.869Z,4.38
2018-07-21T00:46:52.284Z,4.38
2018-07-21T00:47:04.677Z,4.38
2018-07-21T00:47:17.083Z,4.38
2018-07-21T00:47:29.491Z,4.38
2018-07-21T00:47:41.887Z,4.38
2018-07-21T00:47:54.341Z,4.38
2018-07-21T00:48:06.731Z,4.38
2018-07-21T00:48:19.121Z,4.38
2018-07-21T00:48:31.530Z,4.38
2018-07-21T00:48:43.919Z,4.38
2018-07-21T00:48:56.435Z,4.38
2018-07-21T00:49:08.825Z,4.38
2018-07-21T00:49:21.299Z,4.38
2018-07-21T00:49:33.694Z,4.38
2018-07-21T00:49:46.091Z,4.38
2018-07-21T00:49:58.493Z,4.38
2018-07-21T00:50:10.900Z,4.38
2018-07-21T00:50:23.311Z,4.38
2018-07-21T00:50:35.750Z,4.38
2018-07-21T00:50:48.141Z,4.38
2018-07-21T00:51:00.533Z,4.38
2018-07-21T00:51:12.931Z,3.31
2018-07-21T00:51:25.322Z,3.31
2018-07-21T00:51:37.755Z,3.31
2018-07-21T00:51:50.156Z,3.31
2018-07-21T00:52:02.553Z,3.31
2018-07-21T00:52:14.954Z,3.31
2018-07-21T00:52:27.335Z,3.31
2018-07-21T00:52:39.734Z,3.31
2018-07-21T00:52:52.154Z,3.31
2018-07-21T00:53:04.548Z,3.31
2018-07-21T00:53:16.959Z,3.31
2018-07-21T00:53:29.355Z,3.31
2018-07-21T00:53:42.029Z,3.31
2018-07-21T00:53:54.413Z,3.31
2018-07-21T00:54:06.799Z,3.31
2018-07-21T00:54:19.208Z,3.31
2018-07-21T00:54:31.632Z,3.31
2018-07-21T00:54:44.065Z,3.31
2018-07-21T00:54:56.466Z,3.31
2018-07-21T00:55:08.895Z,3.31
2018-07-21T00:55:21.290Z,3.31
2018-07-21T00:55:33.688Z,3.31
2018-07-21T00:55:46.080Z,3.31
2018-07-21T00:55:58.500Z,3.31
2018-07-21T00:56:10.919Z,3.31
2018-07-21T00:56:23.326Z,3.31
2018-07-21T00:56:35.717Z,3.31
2018-07-21T00:56:48.097Z,3.31
2018-07-21T00:57:00.487Z,3.31
2018-07-21T00:57:13.227Z,3.31
2018-07-21T00:57:26.153Z,3.31
2018-07-21T00:57:38.707Z,3.31
2018-07-21T00:57:51.108Z,3.31
2018-07-21T00:58:03.527Z,3.31
2018-07-21T00:58:15.940Z,3.31
2018-07-21T00:58:28.346Z,3.31
2018-07-21T00:58:40.765Z,3.31
2018-07-21T00:58:53.164Z,3.31
2018-07-21T00:59:05.593Z,3.31
2018-07-21T00:59:18.322Z,3.31
2018-07-21T00:59:30.728Z,3.31
2018-07-21T00:59:43.142Z,3.31
2018-07-21T00:59:55.540Z,3.31
2018-07-21T01:00:07.983Z,3.31
2018-07-21T01:00:20.433Z,3.31
2018-07-21T01:00:32.934Z,3.31
2018-07-21T01:00:45.368Z,3.31
2018-07-21T01:00:57.784Z,3.31
2018-07-21T01:01:10.226Z,3.31
2018-07-21T01:01:22.644Z,4.1
2018-07-21T01:01:35.032Z,4.1
2018-07-21T01:01:47.432Z,4.1
2018-07-21T01:01:59.945Z,4.1
2018-07-21T01:02:12.350Z,4.1
2018-07-21T01:02:24.762Z,4.1
2018-07-21T01:02:37.172Z,4.1
2018-07-21T01:02:49.598Z,4.1
2018-07-21T01:03:01.995Z,4.1
2018-07-21T01:03:14.405Z,4.1
2018-07-21T01:03:26.798Z,4.1
2018-07-21T01:03:39.198Z,4.1
2018-07-21T01:03:51.734Z,4.1
2018-07-21T01:04:04.124Z,4.1
2018-07-21T01:04:16.554Z,4.1
2018-07-21T01:04:28.985Z,4.1
2018-07-21T01:04:41.389Z,4.1
2018-07-21T01:04:53.795Z,4.1
2018-07-21T01:05:06.199Z,4.1
2018-07-21T01:05:18.604Z,4.1
2018-07-21T01:05:30.999Z,4.1
2018-07-21T01:05:43.397Z,4.1
2018-07-21T01:05:55.793Z,4.1
2018-07-21T01:06:08.214Z,4.1
2018-07-21T01:06:20.656Z,4.1
2018-07-21T01:06:33.061Z,4.1
2018-07-21T01:06:45.589Z,4.1
2018-07-21T01:06:57.985Z,4.1
2018-07-21T01:07:10.387Z,4.1
2018-07-21T01:07:22.808Z,4.1
2018-07-21T01:07:35.230Z,4.1
2018-07-21T01:07:47.628Z,4.1
2018-07-21T01:08:00.040Z,4.1
2018-07-21T01:08:12.470Z,4.1
2018-07-21T01:08:24.866Z,4.1
2018-07-21T01:08:37.299Z,4.1
2018-07-21T01:08:49.701Z,4.1
2018-07-21T01:09:02.199Z,4.1
2018-07-21T01:09:14.611Z,4.1
2018-07-21T01:09:27.019Z,4.1
2018-07-21T01:09:39.425Z,4.1
2018-07-21T01:09:51.824Z,4.1
2018-07-21T01:10:04.224Z,4.1
2018-07-21T01:10:16.609Z,4.1
2018-07-21T01:10:29.020Z,4.1
2018-07-21T01:10:41.412Z,4.1
2018-07-21T01:10:54.048Z,4.1
2018-07-21T01:11:06.786Z,4.1
2018-07-21T01:11:19.912Z,3.55
2018-07-21T01:11:32.296Z,3.55
2018-07-21T01:11:44.730Z,3.55
2018-07-21T01:11:57.131Z,3.55
2018-07-21T01:12:09.566Z,3.55
2018-07-21T01:12:21.973Z,3.55
2018-07-21T01:12:34.383Z,3.55
2018-07-21T01:12:46.787Z,3.55
2018-07-21T01:12:59.271Z,3.55
2018-07-21T01:13:11.707Z,3.55
2018-07-21T01:13:24.109Z,3.55
2018-07-21T01:13:36.523Z,3.55
2018-07-21T01:13:48.953Z,3.55
2018-07-21T01:14:01.405Z,3.55
2018-07-21T01:14:13.810Z,3.55
2018-07-21T01:14:26.220Z,3.55
2018-07-21T01:14:38.618Z,3.55
2018-07-21T01:14:51.034Z,3.55
2018-07-21T01:15:03.515Z,3.55
2018-07-21T01:15:15.911Z,3.55
2018-07-21T01:15:28.320Z,3.55
2018-07-21T01:15:40.740Z,3.55
2018-07-21T01:15:53.133Z,3.55
2018-07-21T01:16:05.565Z,3.55
2018-07-21T01:16:17.971Z,3.55
2018-07-21T01:16:30.382Z,3.55
2018-07-21T01:16:42.810Z,3.55
2018-07-21T01:16:55.204Z,3.55
2018-07-21T01:17:07.645Z,3.55
2018-07-21T01:17:20.049Z,3.55
2018-07-21T01:17:32.446Z,3.55
2018-07-21T01:17:44.848Z,3.55
2018-07-21T01:17:57.298Z,3.55
2018-07-21T01:18:09.874Z,3.55
2018-07-21T01:18:22.290Z,3.55
2018-07-21T01:18:34.705Z,3.55
2018-07-21T01:18:47.085Z,3.55
2018-07-21T01:18:59.497Z,3.55
2018-07-21T01:19:11.899Z,3.55
2018-07-21T01:19:24.295Z,3.55
2018-07-21T01:19:36.734Z,3.55
2018-07-21T01:19:49.134Z,3.55
2018-07-21T01:20:01.624Z,3.55
2018-07-21T01:20:14.037Z,3.55
2018-07-21T01:20:26.423Z,3.55
2018-07-21T01:20:38.807Z,3.55
2018-07-21T01:20:51.208Z,3.55
2018-07-21T01:21:03.607Z,3.55
2018-07-21T01:21:16.174Z,3.42
2018-07-21T01:21:28.570Z,3.42
2018-07-21T01:21:40.955Z,3.42
2018-07-21T01:21:53.335Z,3.42
2018-07-21T01:22:05.744Z,3.42
2018-07-21T01:22:18.154Z,3.42
2018-07-21T01:22:30.536Z,3.42
2018-07-21T01:22:42.929Z,3.42
2018-07-21T01:22:55.339Z,3.42
2018-07-21T01:23:07.827Z,3.42
2018-07-21T01:23:20.223Z,3.42
2018-07-21T01:23:32.614Z,3.42
2018-07-21T01:23:45.011Z,3.42
2018-07-21T01:23:57.402Z,3.42
2018-07-21T01:24:09.814Z,3.42
2018-07-21T01:24:22.201Z,3.42
2018-07-21T01:24:34.629Z,3.42
2018-07-21T01:24:47.192Z,3.42
2018-07-21T01:24:59.600Z,3.42
2018-07-21T01:25:12.008Z,3.42
2018-07-21T01:25:24.387Z,3.42
2018-07-21T01:25:36.789Z,3.42
2018-07-21T01:25:49.200Z,3.42
2018-07-21T01:26:01.606Z,3.42
2018-07-21T01:26:14.005Z,3.42
2018-07-21T01:26:26.401Z,3.42
2018-07-21T01:26:38.815Z,3.42
2018-07-21T01:26:51.213Z,3.42
2018-07-21T01:27:03.644Z,3.42
2018-07-21T01:27:16.038Z,3.42
2018-07-21T01:27:28.433Z,3.42
2018-07-21T01:27:40.814Z,3.42
2018-07-21T01:27:53.205Z,3.42
2018-07-21T01:28:05.617Z,3.42
2018-07-21T01:28:17.995Z,3.42
2018-07-21T01:28:30.380Z,3.42
2018-07-21T01:28:42.770Z,3.42
2018-07-21T01:28:55.223Z,3.42
2018-07-21T01:29:07.639Z,3.42
2018-07-21T01:29:20.045Z,3.42
2018-07-21T01:29:32.440Z,3.42
2018-07-21T01:29:44.878Z,3.42
2018-07-21T01:29:57.271Z,3.42
2018-07-21T01:30:09.718Z,3.42
2018-07-21T01:30:22.116Z,3.42
2018-07-21T01:30:34.498Z,3.42
2018-07-21T01:30:46.978Z,3.42
2018-07-21T01:30:59.394Z,3.42
2018-07-21T01:31:11.794Z,3.42
2018-07-21T01:31:24.180Z,2.99
2018-07-21T01:31:36.573Z,2.99
2018-07-21T01:31:48.989Z,2.99
2018-07-21T01:32:01.441Z,2.99
2018-07-21T01:32:13.888Z,2.99
2018-07-21T01:32:26.292Z,2.99
2018-07-21T01:32:38.724Z,2.99
2018-07-21T01:32:51.119Z,2.99
2018-07-21T01:33:03.515Z,2.99
2018-07-21T01:33:15.933Z,2.99
2018-07-21T01:33:28.374Z,2.99
2018-07-21T01:33:40.768Z,2.99
2018-07-21T01:33:53.170Z,2.99
2018-07-21T01:34:05.571Z,2.99
2018-07-21T01:34:18.030Z,2.99
2018-07-21T01:34:30.418Z,2.99
2018-07-21T01:34:42.797Z,2.99
2018-07-21T01:34:55.209Z,2.99
2018-07-21T01:35:07.611Z,2.99
2018-07-21T01:35:20.014Z,2.99
2018-07-21T01:35:32.449Z,2.99
2018-07-21T01:35:44.861Z,2.99
2018-07-21T01:35:57.267Z,2.99
2018-07-21T01:36:09.725Z,2.99
2018-07-21T01:36:22.146Z,2.99
2018-07-21T01:36:34.539Z,2.99
2018-07-21T01:36:46.938Z,2.99
2018-07-21T01:36:59.416Z,2.99
2018-07-21T01:37:11.821Z,2.99
2018-07-21T01:37:24.206Z,2.99
2018-07-21T01:37:36.590Z,2.99
2018-07-21T01:37:48.972Z,2.99
2018-07-21T01:38:01.382Z,2.99
2018-07-21T01:38:13.773Z,2.99
2018-07-21T01:38:26.163Z,2.99
2018-07-21T01:38:38.545Z,2.99
2018-07-21T01:38:50.933Z,2.99
2018-07-21T01:39:03.388Z,2.99
2018-07-21T01:39:15.799Z,2.99
2018-07-21T01:39:28.202Z,2.99
2018-07-21T01:39:40.585Z,2.99
2018-07-21T01:39:52.978Z,2.99
2018-07-21T01:40:05.397Z,2.99
2018-07-21T01:40:17.784Z,2.99
2018-07-21T01:40:30.161Z,2.99
2018-07-21T01:40:42.540Z,2.99
2018-07-21T01:40:54.962Z,2.99
2018-07-21T01:41:07.375Z,2.99
2018-07-21T01:41:19.761Z,3.35
2018-07-21T01:41:32.162Z,3.35
2018-07-21T01:41:44.567Z,3.35
2018-07-21T01:41:56.970Z,3.35
2018-07-21T01:42:09.350Z,3.35
2018-07-21T01:42:21.739Z,3.35
2018-07-21T01:42:34.118Z,3.35
2018-07-21T01:42:46.489Z,3.35
2018-07-21T01:42:58.874Z,3.35
2018-07-21T01:43:11.284Z,3.35
2018-07-21T01:43:23.689Z,3.35
2018-07-21T01:43:36.077Z,3.35
2018-07-21T01:43:48.722Z,3.35
2018-07-21T01:44:01.108Z,3.35
2018-07-21T01:44:13.499Z,3.35
2018-07-21T01:44:25.898Z,3.35
2018-07-21T01:44:38.294Z,3.35
2018-07-21T01:44:50.682Z,3.35
2018-07-21T01:45:03.083Z,3.35
2018-07-21T01:45:15.470Z,3.35
2018-07-21T01:45:27.859Z,3.35
2018-07-21T01:45:40.249Z,3.35
2018-07-21T01:45:52.642Z,3.35
2018-07-21T01:46:05.034Z,3.35
2018-07-21T01:46:17.422Z,3.35
2018-07-21T01:46:29.813Z,3.35
2018-07-21T01:46:42.221Z,3.35
2018-07-21T01:46:54.615Z,3.35
2018-07-21T01:47:07.036Z,3.35
2018-07-21T01:47:19.428Z,3.35
2018-07-21T01:47:31.862Z,3.35
2018-07-21T01:47:44.258Z,3.35
2018-07-21T01:47:56.656Z,3.35
2018-07-21T01:48:09.047Z,3.35
2018-07-21T01:48:21.459Z,3.35
2018-07-21T01:48:33.878Z,3.35
2018-07-21T01:48:46.307Z,3.35
2018-07-21T01:48:58.910Z,3.35
2018-07-21T01:49:11.314Z,3.35
2018-07-21T01:49:23.800Z,3.35
2018-07-21T01:49:36.209Z,3.35
2018-07-21T01:49:48.610Z,3.35
2018-07-21T01:50:01.014Z,3.35
2018-07-21T01:50:13.426Z,3.35
2018-07-21T01:50:25.812Z,3.35
2018-07-21T01:50:38.211Z,3.35
2018-07-21T01:50:50.602Z,3.35
2018-07-21T01:51:02.971Z,3.35
2018-07-21T01:51:15.376Z,3.35
2018-07-21T01:51:27.792Z,2.73
2018-07-21T01:51:40.178Z,2.73
2018-07-21T01:51:52.573Z,2.73
2018-07-21T01:52:04.956Z,2.73
2018-07-21T01:52:17.356Z,2.73
2018-07-21T01:52:29.744Z,2.73
2018-07-21T01:52:42.171Z,2.73
2018-07-21T01:52:54.595Z,2.73
2018-07-21T01:53:07.006Z,2.73
2018-07-21T01:53:19.389Z,2.73
2018-07-21T01:53:31.801Z,2.73
2018-07-21T01:53:44.219Z,2.73
2018-07-21T01:53:56.645Z,2.73
2018-07-21T01:54:09.056Z,2.73
2018-07-21T01:54:21.693Z,2.73
2018-07-21T01:54:34.081Z,2.73
2018-07-21T01:54:46.479Z,2.73
2018-07-21T01:54:58.863Z,2.73
2018-07-21T01:55:11.312Z,2.73
2018-07-21T01:55:23.726Z,2.73
2018-07-21T01:55:36.118Z,2.73
2018-07-21T01:55:48.524Z,2.73
2018-07-21T01:56:00.935Z,2.73
2018-07-21T01:56:13.339Z,2.73
2018-07-21T01:56:25.779Z,2.73
2018-07-21T01:56:38.221Z,2.73
2018-07-21T01:56:50.608Z,2.73
2018-07-21T01:57:03.006Z,2.73
2018-07-21T01:57:15.406Z,2.73
2018-07-21T01:57:27.845Z,2.73
2018-07-21T01:57:40.333Z,2.73
2018-07-21T01:57:52.744Z,2.73
2018-07-21T01:58:05.154Z,2.73
2018-07-21T01:58:17.564Z,2.73
2018-07-21T01:58:29.955Z,2.73
2018-07-21T01:58:42.368Z,2.73
2018-07-21T01:58:54.787Z,2.73
2018-07-21T01:59:07.190Z,2.73
2018-07-21T01:59:19.933Z,2.73
2018-07-21T01:59:32.341Z,2.73
2018-07-21T01:59:44.736Z,2.73
2018-07-21T01:59:57.138Z,2.73
2018-07-21T02:00:09.554Z,2.73
2018-07-21T02:00:21.979Z,2.73
2018-07-21T02:00:34.670Z,2.73
2018-07-21T02:00:47.103Z,2.73
2018-07-21T02:00:59.525Z,2.73
2018-07-21T02:01:11.940Z,2.73
2018-07-21T02:01:24.344Z,3.48
2018-07-21T02:01:36.746Z,3.48
2018-07-21T02:01:49.152Z,3.48
2018-07-21T02:02:01.708Z,3.48
2018-07-21T02:02:14.111Z,3.48
2018-07-21T02:02:26.495Z,3.48
2018-07-21T02:02:38.899Z,3.48
2018-07-21T02:02:51.295Z,3.48
2018-07-21T02:03:03.700Z,3.48
2018-07-21T02:03:16.104Z,3.48
2018-07-21T02:03:28.524Z,3.48
2018-07-21T02:03:40.913Z,3.48
2018-07-21T02:03:53.509Z,3.48
2018-07-21T02:04:05.916Z,3.48
2018-07-21T02:04:18.356Z,3.48
2018-07-21T02:04:30.761Z,3.48
2018-07-21T02:04:43.148Z,3.48
2018-07-21T02:04:55.540Z,3.48
2018-07-21T02:05:07.956Z,3.48
2018-07-21T02:05:20.359Z,3.48
2018-07-21T02:05:32.757Z,3.48
2018-07-21T02:05:45.169Z,3.48
2018-07-21T02:05:57.561Z,3.48
2018-07-21T02:06:09.954Z,3.48
2018-07-21T02:06:22.364Z,3.48
2018-07-21T02:06:34.767Z,3.48
2018-07-21T02:06:47.151Z,3.48
2018-07-21T02:06:59.543Z,3.48
2018-07-21T02:07:11.990Z,3.48
2018-07-21T02:07:24.371Z,3.48
2018-07-21T02:07:36.758Z,3.48
2018-07-21T02:07:49.152Z,3.48
2018-07-21T02:08:01.542Z,3.48
2018-07-21T02:08:13.952Z,3.48
2018-07-21T02:08:26.352Z,3.48
2018-07-21T02:08:38.764Z,3.48
2018-07-21T02:08:51.179Z,3.48
2018-07-21T02:09:03.589Z,3.48
2018-07-21T02:09:15.980Z,3.48
2018-07-21T02:09:28.384Z,3.48
2018-07-21T02:09:40.773Z,3.48
2018-07-21T02:09:53.178Z,3.48
2018-07-21T02:10:05.567Z,3.48
2018-07-21T02:10:17.996Z,3.48
2018-07-21T02:10:30.402Z,3.48
2018-07-21T02:10:42.802Z,3.48
2018-07-21T02:10:55.340Z,3.48
2018-07-21T02:11:07.724Z,3.48
2018-07-21T02:11:20.165Z,6.15
2018-07-21T02:11:32.572Z,6.15
2018-07-21T02:11:45.125Z,6.15
2018-07-21T02:11:57.537Z,6.15
2018-07-21T02:12:09.946Z,6.15
2018-07-21T02:12:22.342Z,6.15
2018-07-21T02:12:35.014Z,6.15
2018-07-21T02:12:48.314Z,6.15
2018-07-21T02:13:00.929Z,6.15
2018-07-21T02:13:13.332Z,6.15
2018-07-21T02:13:25.731Z,6.15
2018-07-21T02:13:38.153Z,6.15
2018-07-21T02:13:50.548Z,6.15
2018-07-21T02:14:02.951Z,6.15
2018-07-21T02:14:15.371Z,6.15
2018-07-21T02:14:27.830Z,6.15
2018-07-21T02:14:40.241Z,6.15
2018-07-21T02:14:52.660Z,6.15
2018-07-21T02:15:05.076Z,6.15
2018-07-21T02:15:17.589Z,6.15
2018-07-21T02:15:29.991Z,6.15
2018-07-21T02:15:42.405Z,6.15
2018-07-21T02:15:54.822Z,6.15
2018-07-21T02:16:07.245Z,6.15
2018-07-21T02:16:19.646Z,6.15
2018-07-21T02:16:32.066Z,6.15
2018-07-21T02:16:44.495Z,6.15
2018-07-21T02:16:56.918Z,6.15
2018-07-21T02:17:09.330Z,6.15
2018-07-21T02:17:21.748Z,6.15
2018-07-21T02:17:34.354Z,6.15
2018-07-21T02:17:46.764Z,6.15
2018-07-21T02:17:59.163Z,6.15
2018-07-21T02:18:11.573Z,6.15
2018-07-21T02:18:23.983Z,6.15
2018-07-21T02:18:36.377Z,6.15
2018-07-21T02:18:48.792Z,6.15
2018-07-21T02:19:01.193Z,6.15
2018-07-21T02:19:13.648Z,6.15
2018-07-21T02:19:26.074Z,6.15
2018-07-21T02:19:38.566Z,6.15
2018-07-21T02:19:50.996Z,6.15
2018-07-21T02:20:03.430Z,6.15
2018-07-21T02:20:15.834Z,6.15
2018-07-21T02:20:28.227Z,6.15
2018-07-21T02:20:40.611Z,6.15
2018-07-21T02:20:52.999Z,6.15
2018-07-21T02:21:05.391Z,6.15
2018-07-21T02:21:17.793Z,6.15
2018-07-21T02:21:30.188Z,3.3
2018-07-21T02:21:42.595Z,3.3
2018-07-21T02:21:55.133Z,3.3
2018-07-21T02:22:07.548Z,3.3
2018-07-21T02:22:19.943Z,3.3
2018-07-21T02:22:32.638Z,3.3
2018-07-21T02:22:45.857Z,3.3
2018-07-21T02:22:58.244Z,3.3
2018-07-21T02:23:10.688Z,3.3
2018-07-21T02:23:23.085Z,3.3
2018-07-21T02:23:35.492Z,3.3
2018-07-21T02:23:48.480Z,3.3
2018-07-21T02:24:01.404Z,3.3
2018-07-21T02:24:13.832Z,3.3
2018-07-21T02:24:26.242Z,3.3
2018-07-21T02:24:39.184Z,3.3
2018-07-21T02:24:51.683Z,3.3
2018-07-21T02:25:04.104Z,3.3
2018-07-21T02:25:16.503Z,3.3
2018-07-21T02:25:28.913Z,3.3
2018-07-21T02:25:41.503Z,3.3
2018-07-21T02:25:53.909Z,3.3
2018-07-21T02:26:06.357Z,3.3
2018-07-21T02:26:18.760Z,3.3
2018-07-21T02:26:31.185Z,3.3
2018-07-21T02:26:43.597Z,3.3
2018-07-21T02:26:56.044Z,3.3
2018-07-21T02:27:08.532Z,3.3
2018-07-21T02:27:20.938Z,3.3
2018-07-21T02:27:33.353Z,3.3
2018-07-21T02:27:45.754Z,3.3
2018-07-21T02:27:58.212Z,3.3
2018-07-21T02:28:10.629Z,3.3
2018-07-21T02:28:23.074Z,3.3
2018-07-21T02:28:35.471Z,3.3
2018-07-21T02:28:47.870Z,3.3
2018-07-21T02:29:00.273Z,3.3
2018-07-21T02:29:12.665Z,3.3
2018-07-21T02:29:25.084Z,3.3
2018-07-21T02:29:37.491Z,3.3
2018-07-21T02:29:49.888Z,3.3
2018-07-21T02:30:02.324Z,3.3
2018-07-21T02:30:14.752Z,3.3
2018-07-21T02:30:27.195Z,3.3
2018-07-21T02:30:39.639Z,3.3
2018-07-21T02:30:52.379Z,3.3
2018-07-21T02:31:04.783Z,3.3
2018-07-21T02:31:17.256Z,3.3
2018-07-21T02:31:29.707Z,4.29
2018-07-21T02:31:42.106Z,4.29
2018-07-21T02:31:54.506Z,4.29
2018-07-21T02:32:07.051Z,4.29
2018-07-21T02:32:19.608Z,4.29
2018-07-21T02:32:32.051Z,4.29
2018-07-21T02:32:44.470Z,4.29
2018-07-21T02:32:56.920Z,4.29
2018-07-21T02:33:09.348Z,4.29
2018-07-21T02:33:21.865Z,4.29
2018-07-21T02:33:34.331Z,4.29
2018-07-21T02:33:46.747Z,4.29
2018-07-21T02:33:59.185Z,4.29
2018-07-21T02:34:11.642Z,4.29
2018-07-21T02:34:24.069Z,4.29
2018-07-21T02:34:36.491Z,4.29
2018-07-21T02:34:48.916Z,4.29
2018-07-21T02:35:01.313Z,4.29
2018-07-21T02:35:13.765Z,4.29
2018-07-21T02:35:26.178Z,4.29
2018-07-21T02:35:38.620Z,4.29
2018-07-21T02:35:51.011Z,4.29
2018-07-21T02:36:03.431Z,4.29
2018-07-21T02:36:16.075Z,4.29
2018-07-21T02:36:28.509Z,4.29
2018-07-21T02:36:40.942Z,4.29
2018-07-21T02:36:53.333Z,4.29
2018-07-21T02:37:05.801Z,4.29
2018-07-21T02:37:18.224Z,4.29
2018-07-21T02:37:30.643Z,4.29
2018-07-21T02:37:43.082Z,4.29
2018-07-21T02:37:55.485Z,4.29
2018-07-21T02:38:07.916Z,4.29
2018-07-21T02:38:20.318Z,4.29
2018-07-21T02:38:32.779Z,4.29
2018-07-21T02:38:45.222Z,4.29
2018-07-21T02:38:57.661Z,4.29
2018-07-21T02:39:10.101Z,4.29
2018-07-21T02:39:22.520Z,4.29
2018-07-21T02:39:34.924Z,4.29
2018-07-21T02:39:47.358Z,4.29
2018-07-21T02:39:59.761Z,4.29
2018-07-21T02:40:12.171Z,4.29
2018-07-21T02:40:24.573Z,4.29
2018-07-21T02:40:36.990Z,4.29
2018-07-21T02:40:49.412Z,4.29
2018-07-21T02:41:01.885Z,4.29
2018-07-21T02:41:14.363Z,4.29
2018-07-21T02:41:26.774Z,2.79
2018-07-21T02:41:39.185Z,2.79
2018-07-21T02:41:51.600Z,2.79
2018-07-21T02:42:03.998Z,2.79
2018-07-21T02:42:16.466Z,2.79
2018-07-21T02:42:28.902Z,2.79
2018-07-21T02:42:41.334Z,2.79
2018-07-21T02:42:53.777Z,2.79
2018-07-21T02:43:06.188Z,2.79
2018-07-21T02:43:18.582Z,2.79
2018-07-21T02:43:31.069Z,2.79
2018-07-21T02:43:43.673Z,2.79
2018-07-21T02:43:56.185Z,2.79
2018-07-21T02:44:08.619Z,2.79
2018-07-21T02:44:21.040Z,2.79
2018-07-21T02:44:33.658Z,2.79
2018-07-21T02:44:46.071Z,2.79
2018-07-21T02:44:58.492Z,2.79
2018-07-21T02:45:10.921Z,2.79
2018-07-21T02:45:23.374Z,2.79
2018-07-21T02:45:36.300Z,2.79
2018-07-21T02:45:49.768Z,2.79
2018-07-21T02:46:02.212Z,2.79
2018-07-21T02:46:14.662Z,2.79
2018-07-21T02:46:27.096Z,2.79